Time;durP1;ratioP1;P1;durP2;ratioP2;P2;SDS_P1;SDS_P2;PMS_P1;PMS_P2;Temp;Humidity;BMP_temperature;BMP_pressure;BME280_temperature;BME280_humidity;BME280_pressure;Samples;Min_cycle;Max_cycle;Signal;HPM_P1;HPM_P2
2022/09/12 00:00:21;;;;;;;;;;;;;;;21.88;28.53;97278.63;5038534;28;1985;-78
2022/09/12 00:02:50;;;;;;;;;;;;;;;21.98;28.37;97285.91;5037660;28;1002;-77
2022/09/12 00:05:16;;;;;;;;;;;;;;;21.78;28.97;97277.78;5038449;28;917;-78
2022/09/12 00:07:41;;;;;;;;;;;;;;;21.79;29.01;97284.22;5038579;28;950;-78
2022/09/12 00:10:07;;;;;;;;;;;;;;;21.75;29.03;97289.22;5020936;28;859;-78
2022/09/12 00:12:32;;;;;;;;;;;;;;;21.69;29.38;97283.38;5020465;28;865;-78
2022/09/12 00:14:58;;;;;;;;;;;;;;;22.08;28.71;97292.41;5037759;28;1041;-77
2022/09/12 00:17:24;;;;;;;;;;;;;;;22.52;27.90;97283.75;5020443;28;1116;-77
2022/09/12 00:19:49;;;;;;;;;;;;;;;21.98;28.80;97299.28;5038772;28;943;-78
2022/09/12 00:22:14;;;;;;;;;;;;;;;21.91;28.86;97308.03;5015913;28;1972;-77
2022/09/12 00:24:40;;;;;;;;;;;;;;;21.77;29.06;97300.91;4999632;28;948;-78
2022/09/12 00:27:05;;;;;;;;;;;;;;;21.83;29.05;97307.53;5016037;28;937;-77
2022/09/12 00:29:31;;;;;;;;;;;;;;;21.79;29.00;97306.88;4999826;28;1209;-77
2022/09/12 00:31:56;;;;;;;;;;;;;;;21.68;29.15;97301.63;5016067;28;1070;-77
2022/09/12 00:34:22;;;;;;;;;;;;;;;21.85;28.77;97299.34;5015888;28;972;-78
2022/09/12 00:36:47;;;;;;;;;;;;;;;21.73;28.83;97306.69;5016085;28;1144;-77
2022/09/12 00:39:16;;;;;;;;;;;;;;;22.23;28.42;97304.78;5016203;28;901;-78
2022/09/12 00:41:42;;;;;;;;;;;;;;;22.35;28.22;97303.88;5016062;28;1902;-78
2022/09/12 00:44:22;;;;;;;;;;;;;;;21.97;28.34;97300.53;4999564;28;917;-77
2022/09/12 00:46:49;;;;;;;;;;;;;;;21.85;28.67;97310.69;5015545;28;1037;-78
2022/09/12 00:49:20;;;;;;;;;;;;;;;21.77;28.95;97315.06;4999460;28;866;-78
2022/09/12 00:51:50;;;;;;;;;;;;;;;21.76;28.59;97328.44;4998891;28;1230;-77
2022/09/12 00:54:16;;;;;;;;;;;;;;;21.73;28.63;97332.16;5018438;28;875;-77
2022/09/12 00:56:41;;;;;;;;;;;;;;;21.67;28.90;97345.34;5020075;28;894;-77
2022/09/12 00:59:09;;;;;;;;;;;;;;;21.83;28.62;97335.84;5019709;28;937;-78
2022/09/12 01:01:35;;;;;;;;;;;;;;;21.58;28.82;97350.94;5019725;28;1903;-77
2022/09/12 01:04:00;;;;;;;;;;;;;;;21.78;28.92;97351.41;5019857;28;1145;-78
2022/09/12 01:06:27;;;;;;;;;;;;;;;22.28;27.95;97349.50;5019569;28;925;-78
2022/09/12 01:08:52;;;;;;;;;;;;;;;22.26;28.04;97349.16;5019925;28;943;-78
2022/09/12 01:11:17;;;;;;;;;;;;;;;22.10;27.96;97343.72;4999015;28;1102;-78
2022/09/12 01:13:43;;;;;;;;;;;;;;;21.92;28.48;97332.31;4998590;28;1098;-77
2022/09/12 01:16:08;;;;;;;;;;;;;;;21.78;28.64;97325.91;4998379;28;953;-78
2022/09/12 01:18:49;;;;;;;;;;;;;;;21.70;28.71;97315.31;4998531;28;984;-78
2022/09/12 01:21:14;;;;;;;;;;;;;;;21.74;29.10;97322.41;5014971;28;1972;-77
2022/09/12 01:23:40;;;;;;;;;;;;;;;21.82;28.77;97318.06;5014873;28;1002;-78
2022/09/12 01:26:11;;;;;;;;;;;;;;;22.17;28.25;97315.13;5014906;28;992;-77
2022/09/12 01:28:55;;;;;;;;;;;;;;;22.40;27.91;97310.19;5015073;28;961;-78
2022/09/12 01:31:25;;;;;;;;;;;;;;;21.98;28.67;97311.41;5015027;28;820;-78
2022/09/12 01:34:05;;;;;;;;;;;;;;;21.83;28.78;97310.38;4998305;28;901;-78
2022/09/12 01:36:54;;;;;;;;;;;;;;;21.80;28.74;97303.56;4998372;28;939;-78
2022/09/12 01:39:25;;;;;;;;;;;;;;;21.64;28.80;97311.50;4902460;29;1072;-77
2022/09/12 01:41:54;;;;;;;;;;;;;;;21.57;29.08;97324.69;4924033;29;1967;-77
2022/09/12 01:44:38;;;;;;;;;;;;;;;21.72;28.75;97322.09;4937269;29;885;-78
2022/09/12 01:47:15;;;;;;;;;;;;;;;21.78;28.54;97317.41;4937093;29;975;-78
2022/09/12 01:49:59;;;;;;;;;;;;;;;21.83;28.92;97316.81;4937036;29;1020;-78
2022/09/12 01:52:27;;;;;;;;;;;;;;;22.34;28.05;97319.31;4937163;29;970;-77
2022/09/12 01:54:54;;;;;;;;;;;;;;;22.41;27.32;97323.09;4921411;29;916;-77
2022/09/12 01:57:24;;;;;;;;;;;;;;;22.01;28.05;97312.50;4921301;29;1046;-77
2022/09/12 01:59:50;;;;;;;;;;;;;;;21.82;28.31;97312.41;4921834;29;1104;-77
2022/09/12 02:02:27;;;;;;;;;;;;;;;21.78;28.36;97323.09;4920965;29;1969;-77
2022/09/12 02:04:56;;;;;;;;;;;;;;;21.73;28.55;97309.53;4921121;29;1069;-78
2022/09/12 02:07:22;;;;;;;;;;;;;;;21.81;28.60;97315.69;4937246;29;897;-77
2022/09/12 02:09:51;;;;;;;;;;;;;;;22.18;27.95;97311.06;4921109;29;997;-77
2022/09/12 02:12:17;;;;;;;;;;;;;;;22.49;27.39;97318.72;4921296;29;963;-77
2022/09/12 02:14:47;;;;;;;;;;;;;;;22.26;27.54;97323.66;4921186;29;974;-78
2022/09/12 02:17:14;;;;;;;;;;;;;;;22.04;28.21;97317.25;5007154;28;1128;-77
2022/09/12 02:19:40;;;;;;;;;;;;;;;21.91;28.43;97325.81;4999452;28;1243;-77
2022/09/12 02:22:06;;;;;;;;;;;;;;;21.77;28.26;97327.16;4975367;28;1903;-77
2022/09/12 02:24:32;;;;;;;;;;;;;;;21.87;28.33;97324.41;4959200;28;933;-77
2022/09/12 02:26:59;;;;;;;;;;;;;;;21.89;28.03;97328.34;4961698;28;1017;-78
2022/09/12 02:29:24;;;;;;;;;;;;;;;22.10;28.21;97321.03;4947106;28;1035;-77
2022/09/12 02:31:53;;;;;;;;;;;;;;;22.38;27.18;97324.03;4979481;28;1008;-78
2022/09/12 02:34:18;;;;;;;;;;;;;;;22.43;27.00;97314.91;4946750;28;1100;-78
2022/09/12 02:36:44;;;;;;;;;;;;;;;22.39;26.89;97319.94;4979202;28;993;-78
2022/09/12 02:39:09;;;;;;;;;;;;;;;22.07;27.46;97321.97;4978911;28;943;-78
2022/09/12 02:41:34;;;;;;;;;;;;;;;21.94;27.53;97312.78;4962739;28;1915;-78
2022/09/12 02:44:00;;;;;;;;;;;;;;;21.73;27.80;97320.84;4979569;28;859;-77
2022/09/12 02:46:27;;;;;;;;;;;;;;;21.73;28.04;97315.19;4979088;28;1021;-77
2022/09/12 02:48:52;;;;;;;;;;;;;;;21.72;27.78;97310.00;4943317;28;1398;-77
2022/09/12 02:51:18;;;;;;;;;;;;;;;21.72;27.69;97324.94;4954193;28;1150;-78
2022/09/12 02:53:43;;;;;;;;;;;;;;;21.81;27.67;97333.50;4977281;28;987;-78
2022/09/12 02:56:10;;;;;;;;;;;;;;;21.80;27.82;97336.78;4981753;28;933;-77
2022/09/12 02:58:35;;;;;;;;;;;;;;;22.36;26.90;97345.13;4997912;28;979;-78
2022/09/12 03:01:13;;;;;;;;;;;;;;;22.32;26.73;97344.47;4981762;28;1980;-78
2022/09/12 03:03:38;;;;;;;;;;;;;;;22.00;27.14;97339.25;4998003;28;902;-77
2022/09/12 03:06:08;;;;;;;;;;;;;;;21.85;27.41;97334.13;4997865;28;1006;-78
2022/09/12 03:08:52;;;;;;;;;;;;;;;21.85;27.34;97325.63;4981498;28;1204;-77
2022/09/12 03:11:33;;;;;;;;;;;;;;;21.52;27.81;97333.75;4997961;28;1015;-76
2022/09/12 03:13:58;;;;;;;;;;;;;;;21.80;27.53;97322.59;4997407;28;897;-76
2022/09/12 03:16:27;;;;;;;;;;;;;;;21.62;27.90;97331.78;4997938;28;918;-77
2022/09/12 03:19:04;;;;;;;;;;;;;;;22.28;27.05;97338.19;5001588;28;925;-76
2022/09/12 03:21:36;;;;;;;;;;;;;;;22.20;27.04;97331.19;5039146;28;1965;-77
2022/09/12 03:24:10;;;;;;;;;;;;;;;22.21;26.94;97327.09;5039195;28;1025;-77
2022/09/12 03:26:41;;;;;;;;;;;;;;;22.02;27.34;97314.06;5021033;28;870;-77
2022/09/12 03:29:07;;;;;;;;;;;;;;;21.79;27.77;97301.22;5017200;28;977;-77
2022/09/12 03:31:32;;;;;;;;;;;;;;;21.58;28.11;97292.28;5000763;28;935;-77
2022/09/12 03:34:00;;;;;;;;;;;;;;;21.68;28.13;97293.13;5000294;28;930;-77
2022/09/12 03:36:27;;;;;;;;;;;;;;;21.70;28.61;97293.44;5017216;28;975;-76
2022/09/12 03:38:52;;;;;;;;;;;;;;;21.65;28.33;97296.09;4999903;28;855;-77
2022/09/12 03:41:18;;;;;;;;;;;;;;;21.76;28.57;97302.94;4999316;28;1991;-76
2022/09/12 03:43:43;;;;;;;;;;;;;;;22.00;28.21;97305.25;4999778;28;1425;-77
2022/09/12 03:46:09;;;;;;;;;;;;;;;22.34;27.86;97296.63;5016926;28;883;-77
2022/09/12 03:48:34;;;;;;;;;;;;;;;22.39;27.78;97303.72;5016986;28;929;-77
2022/09/12 03:51:00;;;;;;;;;;;;;;;21.98;28.30;97302.13;4991775;28;1078;-76
2022/09/12 03:53:26;;;;;;;;;;;;;;;21.94;28.22;97295.78;4996956;28;937;-77
2022/09/12 03:55:51;;;;;;;;;;;;;;;21.65;28.91;97296.09;4980902;28;1051;-77
2022/09/12 03:58:17;;;;;;;;;;;;;;;21.73;29.07;97292.53;4988395;28;1356;-77
2022/09/12 04:00:43;;;;;;;;;;;;;;;21.75;28.72;97295.69;5000680;28;1902;-76
2022/09/12 04:03:08;;;;;;;;;;;;;;;22.11;28.45;97282.97;5019162;28;921;-77
2022/09/12 04:05:34;;;;;;;;;;;;;;;22.38;28.18;97301.34;4984058;28;1006;-77
2022/09/12 04:07:59;;;;;;;;;;;;;;;22.09;28.42;97302.47;5001230;28;836;-76
2022/09/12 04:10:25;;;;;;;;;;;;;;;21.99;28.64;97303.69;5018549;28;836;-77
2022/09/12 04:12:50;;;;;;;;;;;;;;;21.94;28.73;97312.78;5016140;28;1427;-77
2022/09/12 04:15:16;;;;;;;;;;;;;;;21.77;29.11;97307.34;5018074;28;1657;-77
2022/09/12 04:17:41;;;;;;;;;;;;;;;21.67;29.24;97317.03;5001250;28;885;-77
2022/09/12 04:20:07;;;;;;;;;;;;;;;21.77;29.01;97315.84;5017187;28;1332;-77
2022/09/12 04:22:32;;;;;;;;;;;;;;;21.73;29.37;97314.41;5016637;28;1918;-77
2022/09/12 04:24:58;;;;;;;;;;;;;;;22.13;28.94;97317.31;5018134;28;1548;-77
2022/09/12 04:27:23;;;;;;;;;;;;;;;22.32;28.24;97318.97;5016939;28;1042;-76
2022/09/12 04:29:49;;;;;;;;;;;;;;;22.23;28.18;97324.63;4983720;28;1631;-77
2022/09/12 04:32:14;;;;;;;;;;;;;;;22.08;28.81;97312.22;5018214;28;871;-77
2022/09/12 04:34:39;;;;;;;;;;;;;;;21.97;28.66;97306.19;5003590;28;923;-76
2022/09/12 04:37:05;;;;;;;;;;;;;;;21.71;29.09;97306.38;5037498;28;885;-77
2022/09/12 04:39:30;;;;;;;;;;;;;;;21.72;29.28;97333.44;5020173;28;1022;-77
2022/09/12 04:41:56;;;;;;;;;;;;;;;21.99;29.12;97332.00;5018488;28;1969;-76
2022/09/12 04:44:21;;;;;;;;;;;;;;;22.22;28.69;97320.19;5018153;28;984;-77
2022/09/12 04:46:47;;;;;;;;;;;;;;;22.29;28.90;97313.47;5000666;28;907;-77
2022/09/12 04:49:13;;;;;;;;;;;;;;;22.01;29.12;97306.84;5000230;28;914;-77
2022/09/12 04:51:38;;;;;;;;;;;;;;;21.86;29.28;97312.25;5011172;28;1307;-77
2022/09/12 04:54:05;;;;;;;;;;;;;;;21.73;29.66;97326.50;5017863;28;911;-77
2022/09/12 04:56:30;;;;;;;;;;;;;;;21.76;29.61;97325.59;5017650;28;884;-77
2022/09/12 04:58:56;;;;;;;;;;;;;;;21.66;29.77;97326.78;4995699;28;895;-77
2022/09/12 05:01:22;;;;;;;;;;;;;;;21.82;29.33;97318.06;4995960;28;1992;-77
2022/09/12 05:03:47;;;;;;;;;;;;;;;21.73;29.51;97323.69;4979486;28;1184;-77
2022/09/12 05:06:13;;;;;;;;;;;;;;;21.72;29.81;97329.81;4995997;28;1525;-77
2022/09/12 05:08:39;;;;;;;;;;;;;;;22.09;29.36;97327.97;5010825;28;1396;-77
2022/09/12 05:11:05;;;;;;;;;;;;;;;22.32;29.21;97330.28;4996908;28;1445;-77
2022/09/12 05:13:31;;;;;;;;;;;;;;;21.83;29.45;97319.66;4998783;28;930;-76
2022/09/12 05:15:57;;;;;;;;;;;;;;;21.83;29.62;97330.97;4998431;28;1548;-77
2022/09/12 05:18:22;;;;;;;;;;;;;;;21.83;29.49;97336.66;5015109;28;921;-77
2022/09/12 05:20:48;;;;;;;;;;;;;;;21.92;29.55;97329.47;5014533;28;1985;-77
2022/09/12 05:23:13;;;;;;;;;;;;;;;21.90;29.24;97324.25;4984114;28;1382;-77
2022/09/12 05:25:39;;;;;;;;;;;;;;;21.78;29.39;97334.41;4995218;28;1076;-75
2022/09/12 05:28:04;;;;;;;;;;;;;;;21.76;29.38;97344.59;4962997;28;1131;-77
2022/09/12 05:30:29;;;;;;;;;;;;;;;21.63;29.60;97347.53;5011855;28;1087;-77
2022/09/12 05:32:55;;;;;;;;;;;;;;;21.69;29.46;97337.19;5017167;28;942;-77
2022/09/12 05:35:21;;;;;;;;;;;;;;;22.26;29.06;97343.50;5016052;28;1012;-77
2022/09/12 05:37:46;;;;;;;;;;;;;;;22.67;28.17;97341.44;5028386;28;1313;-77
2022/09/12 05:40:16;;;;;;;;;;;;;;;22.31;28.50;97345.72;5035656;28;1359;-77
2022/09/12 05:42:41;;;;;;;;;;;;;;;21.84;29.32;97335.38;5036610;28;1910;-76
2022/09/12 05:45:07;;;;;;;;;;;;;;;21.75;29.79;97332.50;5019143;28;805;-77
2022/09/12 05:47:33;;;;;;;;;;;;;;;21.82;29.73;97335.06;4985759;28;993;-76
2022/09/12 05:49:58;;;;;;;;;;;;;;;21.77;29.85;97338.50;5036372;28;1200;-77
2022/09/12 05:52:24;;;;;;;;;;;;;;;21.81;29.46;97330.66;5036620;28;997;-77
2022/09/12 05:54:49;;;;;;;;;;;;;;;21.73;29.67;97331.38;5005769;28;1322;-76
2022/09/12 05:57:14;;;;;;;;;;;;;;;21.61;30.01;97330.22;5016772;28;995;-76
2022/09/12 05:59:40;;;;;;;;;;;;;;;21.87;29.85;97341.41;5016727;28;868;-77
2022/09/12 06:02:06;;;;;;;;;;;;;;;22.20;29.37;97342.53;5029808;28;1898;-77
2022/09/12 06:04:31;;;;;;;;;;;;;;;22.14;29.19;97337.94;5002821;28;1194;-77
2022/09/12 06:06:56;;;;;;;;;;;;;;;21.96;29.55;97341.44;5018717;28;941;-77
2022/09/12 06:09:24;;;;;;;;;;;;;;;21.92;29.58;97346.47;5001061;28;1343;-76
2022/09/12 06:11:50;;;;;;;;;;;;;;;21.88;29.67;97354.28;5036323;28;943;-76
2022/09/12 06:14:16;;;;;;;;;;;;;;;21.88;29.51;97352.25;5019245;28;834;-76
2022/09/12 06:16:42;;;;;;;;;;;;;;;21.82;29.66;97354.91;5018570;28;909;-76
2022/09/12 06:19:11;;;;;;;;;;;;;;;21.76;29.86;97358.75;5018474;28;875;-76
2022/09/12 06:21:38;;;;;;;;;;;;;;;21.66;29.88;97366.44;5018849;28;1986;-77
2022/09/12 06:24:04;;;;;;;;;;;;;;;21.67;29.76;97362.34;5017759;28;1319;-76
2022/09/12 06:26:29;;;;;;;;;;;;;;;21.66;29.94;97360.75;5018771;28;943;-76
2022/09/12 06:28:55;;;;;;;;;;;;;;;21.70;30.13;97361.41;5018387;28;848;-77
2022/09/12 06:31:21;;;;;;;;;;;;;;;22.43;29.33;97360.25;5018657;28;1090;-77
2022/09/12 06:33:48;;;;;;;;;;;;;;;22.54;29.00;97363.47;5018418;28;893;-76
2022/09/12 06:36:14;;;;;;;;;;;;;;;22.24;29.01;97357.34;5018786;28;902;-77
2022/09/12 06:38:40;;;;;;;;;;;;;;;21.79;29.96;97347.31;5012558;28;1306;-77
2022/09/12 06:41:06;;;;;;;;;;;;;;;21.88;29.90;97354.28;4998546;28;1906;-77
2022/09/12 06:43:32;;;;;;;;;;;;;;;21.83;29.86;97347.19;5016320;28;1004;-77
2022/09/12 06:45:57;;;;;;;;;;;;;;;21.91;30.14;97356.19;5016489;28;936;-76
2022/09/12 06:48:23;;;;;;;;;;;;;;;21.77;30.09;97349.81;5016156;28;843;-76
2022/09/12 06:50:58;;;;;;;;;;;;;;;21.81;30.04;97350.50;4995507;28;1140;-77
2022/09/12 06:53:24;;;;;;;;;;;;;;;21.78;30.38;97351.41;4997615;28;1620;-77
2022/09/12 06:55:56;;;;;;;;;;;;;;;22.21;29.99;97360.31;5013319;28;1615;-76
2022/09/12 06:58:22;;;;;;;;;;;;;;;22.36;29.71;97350.78;5015380;28;900;-76
2022/09/12 07:00:47;;;;;;;;;;;;;;;22.08;29.71;97351.91;5016528;28;1914;-76
2022/09/12 07:03:13;;;;;;;;;;;;;;;22.03;29.80;97346.84;5016000;28;951;-76
2022/09/12 07:05:39;;;;;;;;;;;;;;;22.05;29.76;97347.16;5016012;28;953;-77
2022/09/12 07:08:04;;;;;;;;;;;;;;;21.90;30.35;97351.78;5014661;28;1550;-76
2022/09/12 07:10:30;;;;;;;;;;;;;;;21.94;29.93;97353.22;5028280;28;2027;-76
2022/09/12 07:12:55;;;;;;;;;;;;;;;21.94;29.82;97352.44;5016422;28;1591;-77
2022/09/12 07:15:21;;;;;;;;;;;;;;;21.89;29.94;97344.53;5019572;28;873;-77
2022/09/12 07:17:46;;;;;;;;;;;;;;;21.75;30.35;97354.34;4998495;28;1698;-76
2022/09/12 07:20:12;;;;;;;;;;;;;;;21.70;30.53;97347.25;5012164;28;1315;-77
2022/09/12 07:22:37;;;;;;;;;;;;;;;21.93;29.94;97345.19;5030954;28;1981;-76
2022/09/12 07:25:03;;;;;;;;;;;;;;;21.79;30.26;97341.66;5030907;28;1217;-77
2022/09/12 07:27:29;;;;;;;;;;;;;;;22.18;30.16;97350.72;5017730;28;1071;-76
2022/09/12 07:29:54;;;;;;;;;;;;;;;22.38;29.75;97349.53;4998635;28;1639;-76
2022/09/12 07:32:21;;;;;;;;;;;;;;;22.10;29.88;97352.22;4981150;28;959;-76
2022/09/12 07:34:48;;;;;;;;;;;;;;;22.01;29.69;97346.50;4981395;28;891;-77
2022/09/12 07:37:14;;;;;;;;;;;;;;;21.89;30.05;97355.88;4997345;28;909;-77
2022/09/12 07:39:39;;;;;;;;;;;;;;;21.92;29.88;97360.63;4997231;28;988;-76
2022/09/12 07:42:05;;;;;;;;;;;;;;;21.87;29.92;97352.72;4996969;28;1973;-76
2022/09/12 07:44:31;;;;;;;;;;;;;;;22.00;29.78;97348.53;4996873;28;892;-76
2022/09/12 07:46:56;;;;;;;;;;;;;;;21.93;29.68;97354.50;4997183;28;884;-76
2022/09/12 07:49:22;;;;;;;;;;;;;;;21.91;29.70;97347.69;4996983;28;965;-76
2022/09/12 07:51:48;;;;;;;;;;;;;;;21.82;29.98;97352.06;4997103;28;1247;-76
2022/09/12 07:54:14;;;;;;;;;;;;;;;21.89;29.83;97350.22;4997086;28;984;-76
2022/09/12 07:56:40;;;;;;;;;;;;;;;22.29;29.56;97356.75;4969453;28;1274;-76
2022/09/12 07:59:06;;;;;;;;;;;;;;;22.66;28.74;97361.78;4984434;28;1366;-76
2022/09/12 08:01:31;;;;;;;;;;;;;;;22.28;29.36;97354.41;5027693;28;1965;-77
2022/09/12 08:03:57;;;;;;;;;;;;;;;21.95;29.69;97362.50;5000430;28;892;-76
2022/09/12 08:06:23;;;;;;;;;;;;;;;22.01;29.72;97360.66;5000853;28;1491;-76
2022/09/12 08:08:48;;;;;;;;;;;;;;;21.89;29.63;97368.00;5017285;28;955;-76
2022/09/12 08:11:15;;;;;;;;;;;;;;;21.92;29.39;97357.78;5018559;28;918;-76
2022/09/12 08:13:40;;;;;;;;;;;;;;;21.84;29.35;97360.88;5019092;28;1735;-76
2022/09/12 08:16:07;;;;;;;;;;;;;;;21.72;29.54;97356.09;5018228;28;882;-75
2022/09/12 08:18:33;;;;;;;;;;;;;;;21.67;29.65;97356.69;5001089;28;916;-77
2022/09/12 08:20:59;;;;;;;;;;;;;;;21.58;30.00;97351.72;5000531;28;1978;-76
2022/09/12 08:23:26;;;;;;;;;;;;;;;21.76;29.47;97353.91;5000459;28;942;-75
2022/09/12 08:25:54;;;;;;;;;;;;;;;21.78;29.29;97351.41;5018010;28;867;-77
2022/09/12 08:28:19;;;;;;;;;;;;;;;21.68;29.89;97357.47;4995955;28;2113;-76
2022/09/12 08:30:44;;;;;;;;;;;;;;;21.97;29.79;97351.53;5013038;28;2113;-77
2022/09/12 08:33:10;;;;;;;;;;;;;;;22.26;29.22;97352.00;5019232;28;1780;-76
2022/09/12 08:35:35;;;;;;;;;;;;;;;22.25;28.68;97356.09;5018102;28;964;-77
2022/09/12 08:38:01;;;;;;;;;;;;;;;22.18;28.86;97345.06;5018033;28;996;-76
2022/09/12 08:40:26;;;;;;;;;;;;;;;21.97;29.35;97345.88;5017799;28;918;-77
2022/09/12 08:43:01;;;;;;;;;;;;;;;22.03;29.24;97341.97;5017203;28;2014;-76
2022/09/12 08:45:30;;;;;;;;;;;;;;;21.89;29.24;97350.22;5017353;28;1912;-76
2022/09/12 08:47:56;;;;;;;;;;;;;;;21.91;29.50;97342.03;5000589;28;924;-76
2022/09/12 08:50:21;;;;;;;;;;;;;;;21.84;29.08;97335.38;5002401;28;2106;-76
2022/09/12 08:53:03;;;;;;;;;;;;;;;21.75;29.27;97334.53;5035601;28;1728;-76
2022/09/12 08:55:32;;;;;;;;;;;;;;;21.93;29.05;97340.31;5020481;28;1857;-77
2022/09/12 08:57:59;;;;;;;;;;;;;;;21.81;28.95;97339.16;5018375;28;998;-76
2022/09/12 09:00:31;;;;;;;;;;;;;;;21.78;29.15;97337.25;5000699;28;859;-76
2022/09/12 09:03:05;;;;;;;;;;;;;;;21.85;28.62;97333.34;5000240;28;1970;-76
2022/09/12 09:06:00;;;;;;;;;;;;;;;21.69;28.84;97331.50;5018600;28;868;-77
2022/09/12 09:08:28;;;;;;;;;;;;;;;21.67;29.02;97334.03;4937912;29;1029;-76
2022/09/12 09:10:57;;;;;;;;;;;;;;;22.05;28.71;97315.97;4944366;29;2012;-77
2022/09/12 09:16:18;;;;;;;;;;;;;;;22.21;28.21;97324.28;4957060;29;1128;-76
2022/09/12 09:18:44;;;;;;;;;;;;;;;21.96;28.79;97316.72;4955417;28;1618;-76
2022/09/12 09:21:15;;;;;;;;;;;;;;;22.08;28.83;97312.22;4957281;29;1981;-76
2022/09/12 09:23:43;;;;;;;;;;;;;;;22.05;28.56;97307.47;4956971;29;1132;-76
2022/09/12 09:26:13;;;;;;;;;;;;;;;22.02;28.45;97309.22;4956964;29;1024;-76
2022/09/12 09:28:41;;;;;;;;;;;;;;;21.88;28.89;97308.97;4975380;28;1898;-76
2022/09/12 09:31:16;;;;;;;;;;;;;;;21.90;28.81;97309.28;4940797;29;1057;-76
2022/09/12 09:33:42;;;;;;;;;;;;;;;21.85;28.78;97310.69;4956999;29;973;-76
2022/09/12 09:36:10;;;;;;;;;;;;;;;21.79;29.01;97307.66;4937238;29;814;-76
2022/09/12 09:38:51;;;;;;;;;;;;;;;21.78;28.71;97308.13;4937787;29;1070;-76
2022/09/12 09:41:39;;;;;;;;;;;;;;;21.87;28.57;97307.41;4937519;29;1990;-76
2022/09/12 09:44:05;;;;;;;;;;;;;;;21.73;28.60;97306.69;4917196;28;2111;-76
2022/09/12 09:46:30;;;;;;;;;;;;;;;21.93;28.47;97312.00;4959852;28;1025;-76
2022/09/12 09:48:57;;;;;;;;;;;;;;;21.81;28.58;97310.03;4975624;28;957;-76
2022/09/12 09:51:31;;;;;;;;;;;;;;;21.55;28.89;97307.38;4959732;28;1104;-76
2022/09/12 09:54:00;;;;;;;;;;;;;;;21.56;28.94;97305.34;4960457;28;985;-75
2022/09/12 09:56:30;;;;;;;;;;;;;;;21.66;28.74;97309.81;4960069;28;943;-76
2022/09/12 09:58:55;;;;;;;;;;;;;;;21.79;28.59;97307.66;4951025;29;1919;-76
2022/09/12 10:01:21;;;;;;;;;;;;;;;21.78;28.77;97305.31;4953048;29;1973;-76
2022/09/12 10:03:47;;;;;;;;;;;;;;;22.14;28.41;97304.72;4969050;28;957;-76
2022/09/12 10:06:22;;;;;;;;;;;;;;;22.26;27.94;97317.22;4953319;29;1006;-76
2022/09/12 10:08:47;;;;;;;;;;;;;;;21.98;28.34;97302.91;4950177;29;2018;-76
2022/09/12 10:11:19;;;;;;;;;;;;;;;21.78;28.91;97306.09;4956444;29;919;-76
2022/09/12 10:13:52;;;;;;;;;;;;;;;21.94;28.72;97295.78;4888558;29;991;-76
2022/09/12 10:16:21;;;;;;;;;;;;;;;21.78;28.91;97303.25;4879522;29;1918;-76
2022/09/12 10:18:47;;;;;;;;;;;;;;;21.76;28.59;97291.63;4880455;29;925;-76
2022/09/12 10:21:17;;;;;;;;;;;;;;;21.84;28.51;97292.91;4933664;28;1914;-76
2022/09/12 10:23:43;;;;;;;;;;;;;;;21.78;28.63;97289.09;4975755;28;938;-76
2022/09/12 10:26:09;;;;;;;;;;;;;;;21.67;29.05;97300.06;4974808;28;1973;-76
2022/09/12 10:28:38;;;;;;;;;;;;;;;21.66;28.78;97304.13;4974010;28;1894;-76
2022/09/12 10:31:04;;;;;;;;;;;;;;;21.78;28.71;97293.97;4975872;28;1005;-76
2022/09/12 10:33:30;;;;;;;;;;;;;;;21.83;28.68;97297.00;4975417;28;1105;-76
2022/09/12 10:35:55;;;;;;;;;;;;;;;21.94;28.46;97290.91;4975396;28;1020;-76
2022/09/12 10:38:27;;;;;;;;;;;;;;;21.75;29.05;97295.69;4975776;28;996;-76
2022/09/12 10:41:19;;;;;;;;;;;;;;;21.71;28.97;97295.03;4975967;28;1987;-76
2022/09/12 10:43:44;;;;;;;;;;;;;;;21.77;28.80;97304.53;4943331;28;1981;-77
2022/09/12 10:46:23;;;;;;;;;;;;;;;21.89;28.75;97300.00;4956270;29;1125;-77
2022/09/12 10:48:49;;;;;;;;;;;;;;;21.72;29.14;97296.63;4959651;29;880;-76
2022/09/12 10:51:23;;;;;;;;;;;;;;;21.74;29.22;97299.78;4969977;28;1044;-77
2022/09/12 10:53:59;;;;;;;;;;;;;;;21.54;29.20;97296.50;4979372;28;971;-76
2022/09/12 10:56:27;;;;;;;;;;;;;;;21.71;29.04;97297.06;4979089;28;977;-76
2022/09/12 10:58:53;;;;;;;;;;;;;;;21.87;29.23;97301.75;4978312;28;1932;-77
2022/09/12 11:01:30;;;;;;;;;;;;;;;22.41;28.16;97308.94;4978739;28;1910;-76
2022/09/12 11:04:15;;;;;;;;;;;;;;;22.24;28.36;97303.50;4979065;28;880;-76
2022/09/12 11:06:58;;;;;;;;;;;;;;;21.97;28.80;97300.53;4976918;28;2211;-77
2022/09/12 11:09:42;;;;;;;;;;;;;;;21.89;28.91;97304.88;4974984;28;1871;-77
2022/09/12 11:12:19;;;;;;;;;;;;;;;21.84;29.20;97292.91;4959721;28;1033;-76
2022/09/12 11:15:03;;;;;;;;;;;;;;;21.91;28.73;97296.72;4959382;29;992;-77
2022/09/12 11:17:38;;;;;;;;;;;;;;;21.98;28.74;97296.44;4959492;29;1121;-76
2022/09/12 11:20:06;;;;;;;;;;;;;;;21.79;28.97;97299.16;4971655;28;1022;-76
2022/09/12 11:22:39;;;;;;;;;;;;;;;21.83;28.77;97288.50;5007704;28;1977;-76
2022/09/12 11:25:11;;;;;;;;;;;;;;;21.91;28.56;97288.22;5002585;28;928;-77
2022/09/12 11:27:36;;;;;;;;;;;;;;;21.78;29.04;97288.31;5002634;28;960;-76
2022/09/12 11:30:04;;;;;;;;;;;;;;;21.75;29.02;97295.69;5019458;28;926;-76
2022/09/12 11:32:36;;;;;;;;;;;;;;;21.67;29.03;97297.22;5002461;28;820;-76
2022/09/12 11:35:01;;;;;;;;;;;;;;;21.87;28.72;97296.88;5019702;28;802;-76
2022/09/12 11:37:45;;;;;;;;;;;;;;;21.87;28.62;97293.25;5001794;28;1851;-76
2022/09/12 11:40:29;;;;;;;;;;;;;;;21.72;29.21;97285.28;5019378;28;893;-76
2022/09/12 11:42:57;;;;;;;;;;;;;;;21.82;28.62;97284.09;5001880;28;1979;-76
2022/09/12 11:45:28;;;;;;;;;;;;;;;21.82;28.70;97286.94;4986232;28;858;-77
2022/09/12 11:47:54;;;;;;;;;;;;;;;21.72;28.83;97290.97;4985986;28;884;-77
2022/09/12 11:50:27;;;;;;;;;;;;;;;21.74;29.25;97288.44;5004423;28;1247;-76
2022/09/12 11:52:54;;;;;;;;;;;;;;;21.70;29.16;97293.44;5005922;28;2144;-76
2022/09/12 11:55:24;;;;;;;;;;;;;;;21.66;28.90;97287.16;5001860;28;832;-78
2022/09/12 11:57:53;;;;;;;;;;;;;;;21.72;29.08;97290.97;5035296;28;1849;-76
2022/09/12 12:00:19;;;;;;;;;;;;;;;21.66;28.92;97275.81;5020690;28;836;-76
2022/09/12 12:02:47;;;;;;;;;;;;;;;21.77;29.08;97276.19;5038835;28;1984;-76
2022/09/12 12:05:19;;;;;;;;;;;;;;;21.64;28.96;97281.16;5038675;28;934;-77
2022/09/12 12:07:55;;;;;;;;;;;;;;;21.56;28.93;97288.34;5021570;28;848;-76
2022/09/12 12:10:40;;;;;;;;;;;;;;;21.77;28.59;97284.69;5020496;28;2282;-77
2022/09/12 12:13:16;;;;;;;;;;;;;;;22.06;28.60;97287.19;5037758;28;1116;-77
2022/09/12 12:16:01;;;;;;;;;;;;;;;22.36;28.32;97285.59;5021227;28;892;-76
2022/09/12 12:18:30;;;;;;;;;;;;;;;22.24;28.15;97286.50;5038837;28;893;-76
2022/09/12 12:20:56;;;;;;;;;;;;;;;22.10;28.35;97275.72;5021109;28;1910;-77
2022/09/12 12:23:22;;;;;;;;;;;;;;;21.96;28.67;97285.56;5020741;28;910;-76
2022/09/12 12:25:54;;;;;;;;;;;;;;;21.85;28.90;97285.97;4999158;28;1886;-76
2022/09/12 12:28:52;;;;;;;;;;;;;;;22.02;28.57;97280.06;5036237;28;916;-76
2022/09/12 12:31:17;;;;;;;;;;;;;;;21.94;28.85;97284.47;4977310;28;978;-76
2022/09/12 12:33:43;;;;;;;;;;;;;;;21.82;28.98;97271.97;4939217;29;871;-76
2022/09/12 12:36:09;;;;;;;;;;;;;;;21.93;29.00;97277.22;4939234;29;891;-76
2022/09/12 12:38:35;;;;;;;;;;;;;;;21.95;28.67;97281.16;4936973;29;1883;-77
2022/09/12 12:41:16;;;;;;;;;;;;;;;21.87;28.74;97284.75;4938457;29;1915;-76
2022/09/12 12:43:51;;;;;;;;;;;;;;;21.81;28.84;97276.84;4938097;29;1928;-77
2022/09/12 12:46:16;;;;;;;;;;;;;;;21.66;29.11;97275.81;4938578;29;961;-76
2022/09/12 12:48:54;;;;;;;;;;;;;;;21.78;29.00;97274.94;4938340;29;1039;-77
2022/09/12 12:51:22;;;;;;;;;;;;;;;21.65;29.00;97291.22;4938237;29;1083;-77
2022/09/12 12:53:48;;;;;;;;;;;;;;;21.79;29.03;97273.69;4938174;29;1033;-77
2022/09/12 12:56:32;;;;;;;;;;;;;;;21.83;29.03;97290.53;4938290;29;1031;-77
2022/09/12 12:58:58;;;;;;;;;;;;;;;21.94;28.55;97290.13;4930736;29;1912;-76
2022/09/12 13:01:23;;;;;;;;;;;;;;;21.95;28.48;97291.69;4919552;29;1973;-76
2022/09/12 13:03:56;;;;;;;;;;;;;;;21.84;28.70;97286.44;4919150;29;923;-76
2022/09/12 13:06:24;;;;;;;;;;;;;;;21.85;28.71;97288.81;4898034;29;1065;-77
2022/09/12 13:08:54;;;;;;;;;;;;;;;21.79;28.79;97290.69;4938256;29;988;-77
2022/09/12 13:11:27;;;;;;;;;;;;;;;21.67;28.97;97294.38;4960010;28;886;-76